sensor_id;sensor_type;location;lat;lon;timestamp;P1;durP1;ratioP1;P2;durP2;ratioP2
68214;SDS011;55036;52.138;5.236;2023-03-20T00:02:02;14.07;;;8.43;;
68214;SDS011;55036;52.138;5.236;2023-03-20T00:04:30;13.55;;;8.93;;
68214;SDS011;55036;52.138;5.236;2023-03-20T00:06:57;17.35;;;8.70;;
68214;SDS011;55036;52.138;5.236;2023-03-20T00:09:24;16.38;;;9.32;;
68214;SDS011;55036;52.138;5.236;2023-03-20T00:11:52;16.13;;;8.45;;
68214;SDS011;55036;52.138;5.236;2023-03-20T00:14:20;16.15;;;9.82;;
68214;SDS011;55036;52.138;5.236;2023-03-20T00:16:49;20.75;;;9.52;;
68214;SDS011;55036;52.138;5.236;2023-03-20T00:21:44;14.48;;;8.35;;
68214;SDS011;55036;52.138;5.236;2023-03-20T00:24:11;15.48;;;8.00;;
68214;SDS011;55036;52.138;5.236;2023-03-20T00:26:39;14.85;;;7.07;;
68214;SDS011;55036;52.138;5.236;2023-03-20T00:29:08;14.15;;;7.85;;
68214;SDS011;55036;52.138;5.236;2023-03-20T00:31:43;13.00;;;7.68;;
68214;SDS011;55036;52.138;5.236;2023-03-20T00:34:11;11.43;;;6.57;;
68214;SDS011;55036;52.138;5.236;2023-03-20T00:36:39;13.85;;;7.15;;
68214;SDS011;55036;52.138;5.236;2023-03-20T00:39:06;12.38;;;6.50;;
68214;SDS011;55036;52.138;5.236;2023-03-20T00:41:42;10.10;;;6.25;;
68214;SDS011;55036;52.138;5.236;2023-03-20T00:46:41;10.52;;;5.85;;
68214;SDS011;55036;52.138;5.236;2023-03-20T00:49:09;11.85;;;5.88;;
68214;SDS011;55036;52.138;5.236;2023-03-20T00:51:36;13.30;;;6.30;;
68214;SDS011;55036;52.138;5.236;2023-03-20T00:54:08;9.75;;;5.90;;
68214;SDS011;55036;52.138;5.236;2023-03-20T00:56:42;9.45;;;5.80;;
68214;SDS011;55036;52.138;5.236;2023-03-20T00:59:13;14.48;;;6.55;;
68214;SDS011;55036;52.138;5.236;2023-03-20T01:01:46;9.82;;;6.03;;
68214;SDS011;55036;52.138;5.236;2023-03-20T01:04:14;9.80;;;5.70;;
68214;SDS011;55036;52.138;5.236;2023-03-20T01:06:43;10.88;;;6.43;;
68214;SDS011;55036;52.138;5.236;2023-03-20T01:09:10;11.75;;;6.10;;
68214;SDS011;55036;52.138;5.236;2023-03-20T01:11:38;13.60;;;6.38;;
68214;SDS011;55036;52.138;5.236;2023-03-20T01:14:09;12.80;;;5.93;;
68214;SDS011;55036;52.138;5.236;2023-03-20T01:16:39;9.63;;;6.03;;
68214;SDS011;55036;52.138;5.236;2023-03-20T01:19:08;14.60;;;6.28;;
68214;SDS011;55036;52.138;5.236;2023-03-20T01:21:38;10.13;;;5.22;;
68214;SDS011;55036;52.138;5.236;2023-03-20T01:24:05;10.32;;;6.28;;
68214;SDS011;55036;52.138;5.236;2023-03-20T01:26:36;11.38;;;5.95;;
68214;SDS011;55036;52.138;5.236;2023-03-20T01:29:11;8.23;;;5.10;;
68214;SDS011;55036;52.138;5.236;2023-03-20T01:31:46;11.15;;;5.22;;
68214;SDS011;55036;52.138;5.236;2023-03-20T01:34:13;8.77;;;4.97;;
68214;SDS011;55036;52.138;5.236;2023-03-20T01:36:46;9.80;;;4.88;;
68214;SDS011;55036;52.138;5.236;2023-03-20T01:39:15;5.90;;;4.40;;
68214;SDS011;55036;52.138;5.236;2023-03-20T01:41:44;7.15;;;4.22;;
68214;SDS011;55036;52.138;5.236;2023-03-20T01:44:15;7.88;;;4.65;;
68214;SDS011;55036;52.138;5.236;2023-03-20T01:46:51;7.22;;;4.50;;
68214;SDS011;55036;52.138;5.236;2023-03-20T01:51:48;9.15;;;4.07;;
68214;SDS011;55036;52.138;5.236;2023-03-20T01:54:18;7.22;;;3.53;;
68214;SDS011;55036;52.138;5.236;2023-03-20T01:56:56;9.93;;;4.55;;
68214;SDS011;55036;52.138;5.236;2023-03-20T01:59:34;12.35;;;4.07;;
68214;SDS011;55036;52.138;5.236;2023-03-20T02:02:05;7.95;;;4.10;;
68214;SDS011;55036;52.138;5.236;2023-03-20T02:04:36;7.78;;;3.67;;
68214;SDS011;55036;52.138;5.236;2023-03-20T02:07:07;9.10;;;3.72;;
68214;SDS011;55036;52.138;5.236;2023-03-20T02:09:36;9.27;;;3.72;;
68214;SDS011;55036;52.138;5.236;2023-03-20T02:12:03;7.65;;;4.13;;
68214;SDS011;55036;52.138;5.236;2023-03-20T02:14:30;14.40;;;4.18;;
68214;SDS011;55036;52.138;5.236;2023-03-20T02:16:58;8.25;;;4.38;;
68214;SDS011;55036;52.138;5.236;2023-03-20T02:28:24;7.78;;;4.10;;
68214;SDS011;55036;52.138;5.236;2023-03-20T02:31:07;10.07;;;4.75;;
68214;SDS011;55036;52.138;5.236;2023-03-20T02:33:52;12.40;;;4.47;;
68214;SDS011;55036;52.138;5.236;2023-03-20T02:48:14;11.85;;;5.28;;
68214;SDS011;55036;52.138;5.236;2023-03-20T03:00:14;13.02;;;6.13;;
68214;SDS011;55036;52.138;5.236;2023-03-20T03:03:00;13.25;;;7.15;;
68214;SDS011;55036;52.138;5.236;2023-03-20T03:05:47;17.15;;;7.80;;
68214;SDS011;55036;52.138;5.236;2023-03-20T03:08:19;15.48;;;7.63;;
68214;SDS011;55036;52.138;5.236;2023-03-20T03:10:50;16.40;;;7.70;;
68214;SDS011;55036;52.138;5.236;2023-03-20T03:13:21;17.55;;;8.73;;
68214;SDS011;55036;52.138;5.236;2023-03-20T03:15:54;17.58;;;7.93;;
68214;SDS011;55036;52.138;5.236;2023-03-20T03:18:29;18.48;;;8.05;;
68214;SDS011;55036;52.138;5.236;2023-03-20T03:20:59;17.95;;;8.68;;
68214;SDS011;55036;52.138;5.236;2023-03-20T03:23:33;17.17;;;8.73;;
68214;SDS011;55036;52.138;5.236;2023-03-20T03:26:26;21.03;;;9.40;;
68214;SDS011;55036;52.138;5.236;2023-03-20T03:28:58;18.88;;;8.70;;
68214;SDS011;55036;52.138;5.236;2023-03-20T03:31:29;16.80;;;9.43;;
68214;SDS011;55036;52.138;5.236;2023-03-20T03:33:58;18.65;;;10.40;;
68214;SDS011;55036;52.138;5.236;2023-03-20T03:36:42;21.67;;;10.77;;
68214;SDS011;55036;52.138;5.236;2023-03-20T03:47:26;23.25;;;11.32;;
68214;SDS011;55036;52.138;5.236;2023-03-20T03:50:00;21.60;;;11.02;;
68214;SDS011;55036;52.138;5.236;2023-03-20T03:52:30;22.95;;;11.60;;
68214;SDS011;55036;52.138;5.236;2023-03-20T03:55:07;25.63;;;10.77;;
68214;SDS011;55036;52.138;5.236;2023-03-20T03:57:43;19.35;;;10.85;;
68214;SDS011;55036;52.138;5.236;2023-03-20T04:00:14;23.67;;;11.32;;
68214;SDS011;55036;52.138;5.236;2023-03-20T04:02:44;23.65;;;10.65;;
68214;SDS011;55036;52.138;5.236;2023-03-20T04:05:14;24.20;;;11.73;;
68214;SDS011;55036;52.138;5.236;2023-03-20T04:07:44;20.70;;;11.55;;
68214;SDS011;55036;52.138;5.236;2023-03-20T04:10:13;27.33;;;11.50;;
68214;SDS011;55036;52.138;5.236;2023-03-20T04:12:40;21.38;;;10.57;;
68214;SDS011;55036;52.138;5.236;2023-03-20T04:15:09;24.15;;;12.40;;
68214;SDS011;55036;52.138;5.236;2023-03-20T04:17:36;23.20;;;11.80;;
68214;SDS011;55036;52.138;5.236;2023-03-20T04:20:04;22.48;;;11.63;;
68214;SDS011;55036;52.138;5.236;2023-03-20T04:22:31;23.80;;;10.70;;
68214;SDS011;55036;52.138;5.236;2023-03-20T04:25:00;23.38;;;11.40;;
68214;SDS011;55036;52.138;5.236;2023-03-20T04:27:29;25.02;;;11.82;;
68214;SDS011;55036;52.138;5.236;2023-03-20T04:29:55;21.23;;;10.80;;
68214;SDS011;55036;52.138;5.236;2023-03-20T04:32:22;21.63;;;11.10;;
68214;SDS011;55036;52.138;5.236;2023-03-20T04:34:49;25.13;;;10.90;;
68214;SDS011;55036;52.138;5.236;2023-03-20T04:37:17;21.33;;;11.73;;
68214;SDS011;55036;52.138;5.236;2023-03-20T04:39:44;20.02;;;10.60;;
68214;SDS011;55036;52.138;5.236;2023-03-20T04:42:11;19.73;;;10.18;;
68214;SDS011;55036;52.138;5.236;2023-03-20T04:44:38;24.15;;;10.93;;
68214;SDS011;55036;52.138;5.236;2023-03-20T04:47:05;20.45;;;9.68;;
68214;SDS011;55036;52.138;5.236;2023-03-20T04:49:31;21.15;;;10.70;;
68214;SDS011;55036;52.138;5.236;2023-03-20T04:51:58;22.80;;;10.90;;
68214;SDS011;55036;52.138;5.236;2023-03-20T04:54:25;19.33;;;10.52;;
68214;SDS011;55036;52.138;5.236;2023-03-20T04:56:51;21.95;;;11.07;;
68214;SDS011;55036;52.138;5.236;2023-03-20T04:59:18;22.45;;;11.20;;
68214;SDS011;55036;52.138;5.236;2023-03-20T05:01:45;19.58;;;10.18;;
68214;SDS011;55036;52.138;5.236;2023-03-20T05:04:12;22.20;;;11.50;;
68214;SDS011;55036;52.138;5.236;2023-03-20T05:06:38;22.48;;;11.27;;
68214;SDS011;55036;52.138;5.236;2023-03-20T05:09:05;20.88;;;12.10;;
68214;SDS011;55036;52.138;5.236;2023-03-20T05:11:32;21.60;;;11.52;;
68214;SDS011;55036;52.138;5.236;2023-03-20T05:13:59;21.00;;;11.98;;
68214;SDS011;55036;52.138;5.236;2023-03-20T05:16:25;21.83;;;11.93;;
68214;SDS011;55036;52.138;5.236;2023-03-20T05:18:52;20.98;;;11.60;;
68214;SDS011;55036;52.138;5.236;2023-03-20T05:21:19;18.75;;;11.98;;
68214;SDS011;55036;52.138;5.236;2023-03-20T05:23:45;20.88;;;11.68;;
68214;SDS011;55036;52.138;5.236;2023-03-20T05:26:12;23.15;;;12.85;;
68214;SDS011;55036;52.138;5.236;2023-03-20T05:28:39;21.00;;;11.50;;
68214;SDS011;55036;52.138;5.236;2023-03-20T05:31:05;22.17;;;12.65;;
68214;SDS011;55036;52.138;5.236;2023-03-20T05:33:32;21.55;;;11.52;;
68214;SDS011;55036;52.138;5.236;2023-03-20T05:36:03;22.58;;;12.85;;
68214;SDS011;55036;52.138;5.236;2023-03-20T05:38:31;23.05;;;12.00;;
68214;SDS011;55036;52.138;5.236;2023-03-20T05:40:58;21.48;;;12.30;;
68214;SDS011;55036;52.138;5.236;2023-03-20T05:43:25;22.88;;;12.60;;
68214;SDS011;55036;52.138;5.236;2023-03-20T05:45:54;24.23;;;12.07;;
68214;SDS011;55036;52.138;5.236;2023-03-20T05:48:22;18.40;;;11.60;;
68214;SDS011;55036;52.138;5.236;2023-03-20T05:50:49;21.55;;;11.80;;
68214;SDS011;55036;52.138;5.236;2023-03-20T05:53:16;22.55;;;12.50;;
68214;SDS011;55036;52.138;5.236;2023-03-20T05:55:42;20.38;;;12.07;;
68214;SDS011;55036;52.138;5.236;2023-03-20T05:58:12;24.10;;;11.98;;
68214;SDS011;55036;52.138;5.236;2023-03-20T06:00:39;20.95;;;12.65;;
68214;SDS011;55036;52.138;5.236;2023-03-20T06:03:06;21.92;;;12.65;;
68214;SDS011;55036;52.138;5.236;2023-03-20T06:05:33;22.05;;;11.40;;
68214;SDS011;55036;52.138;5.236;2023-03-20T06:08:00;22.30;;;11.63;;
68214;SDS011;55036;52.138;5.236;2023-03-20T06:10:27;23.60;;;11.55;;
68214;SDS011;55036;52.138;5.236;2023-03-20T06:12:55;19.98;;;11.07;;
68214;SDS011;55036;52.138;5.236;2023-03-20T06:15:26;19.70;;;11.98;;
68214;SDS011;55036;52.138;5.236;2023-03-20T06:17:54;15.68;;;10.73;;
68214;SDS011;55036;52.138;5.236;2023-03-20T06:20:21;22.52;;;12.50;;
68214;SDS011;55036;52.138;5.236;2023-03-20T06:22:48;18.63;;;11.02;;
68214;SDS011;55036;52.138;5.236;2023-03-20T06:25:15;22.70;;;11.55;;
68214;SDS011;55036;52.138;5.236;2023-03-20T06:27:42;19.35;;;11.73;;
68214;SDS011;55036;52.138;5.236;2023-03-20T06:30:09;19.70;;;11.60;;
68214;SDS011;55036;52.138;5.236;2023-03-20T06:32:36;19.92;;;11.45;;
68214;SDS011;55036;52.138;5.236;2023-03-20T06:35:03;20.50;;;11.07;;
68214;SDS011;55036;52.138;5.236;2023-03-20T06:37:33;19.42;;;11.52;;
68214;SDS011;55036;52.138;5.236;2023-03-20T06:40:02;19.30;;;11.10;;
68214;SDS011;55036;52.138;5.236;2023-03-20T06:42:29;18.42;;;10.73;;
68214;SDS011;55036;52.138;5.236;2023-03-20T06:44:55;16.00;;;10.60;;
68214;SDS011;55036;52.138;5.236;2023-03-20T06:47:22;21.38;;;10.68;;
68214;SDS011;55036;52.138;5.236;2023-03-20T06:49:49;17.85;;;10.40;;
68214;SDS011;55036;52.138;5.236;2023-03-20T06:52:17;18.63;;;9.98;;
68214;SDS011;55036;52.138;5.236;2023-03-20T06:54:46;18.70;;;11.63;;
68214;SDS011;55036;52.138;5.236;2023-03-20T06:57:13;23.08;;;11.13;;
68214;SDS011;55036;52.138;5.236;2023-03-20T06:59:43;19.80;;;9.88;;
68214;SDS011;55036;52.138;5.236;2023-03-20T07:02:10;19.27;;;10.25;;
68214;SDS011;55036;52.138;5.236;2023-03-20T07:04:37;16.48;;;10.25;;
68214;SDS011;55036;52.138;5.236;2023-03-20T07:07:04;20.67;;;9.73;;
68214;SDS011;55036;52.138;5.236;2023-03-20T07:09:30;23.83;;;9.80;;
68214;SDS011;55036;52.138;5.236;2023-03-20T07:11:58;20.95;;;10.30;;
68214;SDS011;55036;52.138;5.236;2023-03-20T07:14:25;16.92;;;9.55;;
68214;SDS011;55036;52.138;5.236;2023-03-20T07:16:51;18.17;;;9.60;;
68214;SDS011;55036;52.138;5.236;2023-03-20T07:19:19;23.70;;;10.05;;
68214;SDS011;55036;52.138;5.236;2023-03-20T07:21:47;14.73;;;9.32;;
68214;SDS011;55036;52.138;5.236;2023-03-20T07:24:13;17.08;;;10.15;;
68214;SDS011;55036;52.138;5.236;2023-03-20T07:26:40;20.63;;;9.88;;
68214;SDS011;55036;52.138;5.236;2023-03-20T07:29:07;20.23;;;9.80;;
68214;SDS011;55036;52.138;5.236;2023-03-20T07:31:33;18.20;;;10.35;;
68214;SDS011;55036;52.138;5.236;2023-03-20T07:34:00;20.88;;;10.32;;
68214;SDS011;55036;52.138;5.236;2023-03-20T07:36:27;21.85;;;10.20;;
68214;SDS011;55036;52.138;5.236;2023-03-20T07:38:54;18.52;;;9.52;;
68214;SDS011;55036;52.138;5.236;2023-03-20T07:41:20;15.05;;;9.73;;
68214;SDS011;55036;52.138;5.236;2023-03-20T07:43:47;23.55;;;9.40;;
68214;SDS011;55036;52.138;5.236;2023-03-20T07:46:14;17.25;;;9.57;;
68214;SDS011;55036;52.138;5.236;2023-03-20T07:48:40;21.92;;;9.35;;
68214;SDS011;55036;52.138;5.236;2023-03-20T07:51:07;21.48;;;8.93;;
68214;SDS011;55036;52.138;5.236;2023-03-20T07:53:34;24.20;;;8.93;;
68214;SDS011;55036;52.138;5.236;2023-03-20T07:56:01;17.92;;;9.68;;
68214;SDS011;55036;52.138;5.236;2023-03-20T07:58:27;16.70;;;8.52;;
68214;SDS011;55036;52.138;5.236;2023-03-20T08:00:55;20.52;;;8.80;;
68214;SDS011;55036;52.138;5.236;2023-03-20T08:03:23;17.45;;;8.13;;
68214;SDS011;55036;52.138;5.236;2023-03-20T08:05:50;16.38;;;8.50;;
68214;SDS011;55036;52.138;5.236;2023-03-20T08:08:17;15.10;;;8.38;;
68214;SDS011;55036;52.138;5.236;2023-03-20T08:10:44;14.48;;;7.35;;
68214;SDS011;55036;52.138;5.236;2023-03-20T08:13:10;17.08;;;7.70;;
68214;SDS011;55036;52.138;5.236;2023-03-20T08:15:37;18.40;;;9.43;;
68214;SDS011;55036;52.138;5.236;2023-03-20T08:18:04;14.25;;;6.65;;
68214;SDS011;55036;52.138;5.236;2023-03-20T08:20:31;12.98;;;6.32;;
68214;SDS011;55036;52.138;5.236;2023-03-20T08:22:58;15.88;;;7.10;;
68214;SDS011;55036;52.138;5.236;2023-03-20T08:25:25;14.77;;;7.13;;
68214;SDS011;55036;52.138;5.236;2023-03-20T08:27:51;15.38;;;6.13;;
68214;SDS011;55036;52.138;5.236;2023-03-20T08:30:18;14.13;;;6.68;;
68214;SDS011;55036;52.138;5.236;2023-03-20T08:32:45;14.05;;;6.60;;
68214;SDS011;55036;52.138;5.236;2023-03-20T08:35:12;14.63;;;6.65;;
68214;SDS011;55036;52.138;5.236;2023-03-20T08:37:57;13.10;;;6.55;;
68214;SDS011;55036;52.138;5.236;2023-03-20T08:40:23;12.98;;;6.20;;
68214;SDS011;55036;52.138;5.236;2023-03-20T08:42:50;14.23;;;6.55;;
68214;SDS011;55036;52.138;5.236;2023-03-20T08:45:17;14.30;;;6.40;;
68214;SDS011;55036;52.138;5.236;2023-03-20T08:47:46;16.90;;;7.90;;
68214;SDS011;55036;52.138;5.236;2023-03-20T08:50:14;17.02;;;7.00;;
68214;SDS011;55036;52.138;5.236;2023-03-20T08:52:41;14.30;;;6.53;;
68214;SDS011;55036;52.138;5.236;2023-03-20T08:55:10;12.48;;;5.95;;
68214;SDS011;55036;52.138;5.236;2023-03-20T08:57:37;11.77;;;6.53;;
68214;SDS011;55036;52.138;5.236;2023-03-20T09:00:04;16.02;;;6.72;;
68214;SDS011;55036;52.138;5.236;2023-03-20T09:02:33;16.92;;;6.93;;
68214;SDS011;55036;52.138;5.236;2023-03-20T09:05:01;14.35;;;6.15;;
68214;SDS011;55036;52.138;5.236;2023-03-20T09:07:28;16.02;;;5.85;;
68214;SDS011;55036;52.138;5.236;2023-03-20T09:09:55;16.20;;;6.97;;
68214;SDS011;55036;52.138;5.236;2023-03-20T09:12:21;16.88;;;6.38;;
68214;SDS011;55036;52.138;5.236;2023-03-20T09:14:48;15.75;;;6.13;;
68214;SDS011;55036;52.138;5.236;2023-03-20T09:17:15;13.57;;;6.32;;
68214;SDS011;55036;52.138;5.236;2023-03-20T09:19:41;13.35;;;6.70;;
68214;SDS011;55036;52.138;5.236;2023-03-20T09:22:13;13.93;;;6.25;;
68214;SDS011;55036;52.138;5.236;2023-03-20T09:24:43;15.50;;;6.80;;
68214;SDS011;55036;52.138;5.236;2023-03-20T09:27:10;15.80;;;6.68;;
68214;SDS011;55036;52.138;5.236;2023-03-20T09:29:41;16.55;;;7.47;;
68214;SDS011;55036;52.138;5.236;2023-03-20T09:32:10;14.93;;;6.35;;
68214;SDS011;55036;52.138;5.236;2023-03-20T09:34:37;16.65;;;7.18;;
68214;SDS011;55036;52.138;5.236;2023-03-20T09:37:04;17.20;;;7.38;;
68214;SDS011;55036;52.138;5.236;2023-03-20T09:39:31;16.85;;;6.80;;
68214;SDS011;55036;52.138;5.236;2023-03-20T09:42:00;14.27;;;6.82;;
68214;SDS011;55036;52.138;5.236;2023-03-20T09:50:10;11.98;;;6.57;;
68214;SDS011;55036;52.138;5.236;2023-03-20T09:55:32;13.32;;;6.60;;
68214;SDS011;55036;52.138;5.236;2023-03-20T09:58:08;12.95;;;6.40;;
68214;SDS011;55036;52.138;5.236;2023-03-20T10:00:45;10.48;;;5.57;;
68214;SDS011;55036;52.138;5.236;2023-03-20T10:05:45;12.27;;;5.88;;
68214;SDS011;55036;52.138;5.236;2023-03-20T10:08:18;12.88;;;5.82;;
68214;SDS011;55036;52.138;5.236;2023-03-20T10:10:52;13.15;;;5.70;;
68214;SDS011;55036;52.138;5.236;2023-03-20T10:13:37;10.63;;;5.38;;
68214;SDS011;55036;52.138;5.236;2023-03-20T10:19:05;14.27;;;5.68;;
68214;SDS011;55036;52.138;5.236;2023-03-20T10:22:35;13.63;;;5.45;;
68214;SDS011;55036;52.138;5.236;2023-03-20T10:24:55;13.18;;;5.68;;
68214;SDS011;55036;52.138;5.236;2023-03-20T10:27:48;14.48;;;5.32;;
68214;SDS011;55036;52.138;5.236;2023-03-20T10:33:06;17.55;;;5.70;;
68214;SDS011;55036;52.138;5.236;2023-03-20T10:36:11;12.88;;;5.25;;
68214;SDS011;55036;52.138;5.236;2023-03-20T10:41:28;16.92;;;6.20;;
68214;SDS011;55036;52.138;5.236;2023-03-20T10:44:00;14.77;;;5.47;;
68214;SDS011;55036;52.138;5.236;2023-03-20T10:46:31;12.73;;;6.18;;
68214;SDS011;55036;52.138;5.236;2023-03-20T10:49:16;12.23;;;5.65;;
68214;SDS011;55036;52.138;5.236;2023-03-20T10:51:55;13.18;;;5.72;;
68214;SDS011;55036;52.138;5.236;2023-03-20T10:54:29;11.57;;;5.60;;
68214;SDS011;55036;52.138;5.236;2023-03-20T10:56:59;14.93;;;6.18;;
68214;SDS011;55036;52.138;5.236;2023-03-20T11:02:12;14.63;;;6.93;;
68214;SDS011;55036;52.138;5.236;2023-03-20T11:04:41;16.02;;;7.20;;
68214;SDS011;55036;52.138;5.236;2023-03-20T11:10:13;14.65;;;8.02;;
68214;SDS011;55036;52.138;5.236;2023-03-20T11:12:43;17.50;;;7.53;;
68214;SDS011;55036;52.138;5.236;2023-03-20T11:15:19;17.92;;;8.88;;
68214;SDS011;55036;52.138;5.236;2023-03-20T11:17:56;14.10;;;7.38;;
68214;SDS011;55036;52.138;5.236;2023-03-20T11:20:25;15.18;;;8.88;;
68214;SDS011;55036;52.138;5.236;2023-03-20T11:22:58;16.23;;;9.35;;
68214;SDS011;55036;52.138;5.236;2023-03-20T11:25:28;21.65;;;10.07;;
68214;SDS011;55036;52.138;5.236;2023-03-20T11:28:17;18.92;;;9.90;;
68214;SDS011;55036;52.138;5.236;2023-03-20T11:30:44;16.95;;;9.57;;
68214;SDS011;55036;52.138;5.236;2023-03-20T11:33:29;20.23;;;10.88;;
68214;SDS011;55036;52.138;5.236;2023-03-20T11:35:58;21.60;;;11.27;;
68214;SDS011;55036;52.138;5.236;2023-03-20T11:38:25;19.58;;;10.40;;
68214;SDS011;55036;52.138;5.236;2023-03-20T11:40:56;17.95;;;10.70;;
68214;SDS011;55036;52.138;5.236;2023-03-20T11:43:23;27.70;;;11.27;;
68214;SDS011;55036;52.138;5.236;2023-03-20T11:45:59;18.10;;;12.07;;
68214;SDS011;55036;52.138;5.236;2023-03-20T11:48:39;25.45;;;11.75;;
68214;SDS011;55036;52.138;5.236;2023-03-20T11:51:13;20.02;;;10.75;;
68214;SDS011;55036;52.138;5.236;2023-03-20T11:56:22;20.70;;;11.77;;
68214;SDS011;55036;52.138;5.236;2023-03-20T11:58:54;22.33;;;12.13;;
68214;SDS011;55036;52.138;5.236;2023-03-20T12:01:22;26.58;;;13.88;;
68214;SDS011;55036;52.138;5.236;2023-03-20T12:06:28;22.80;;;13.30;;
68214;SDS011;55036;52.138;5.236;2023-03-20T12:25:52;31.02;;;14.98;;
68214;SDS011;55036;52.138;5.236;2023-03-20T12:28:32;27.63;;;16.27;;
68214;SDS011;55036;52.138;5.236;2023-03-20T12:36:14;24.50;;;15.15;;
68214;SDS011;55036;52.138;5.236;2023-03-20T12:38:43;27.80;;;15.88;;
68214;SDS011;55036;52.138;5.236;2023-03-20T12:41:13;28.83;;;16.92;;
68214;SDS011;55036;52.138;5.236;2023-03-20T12:46:43;25.20;;;15.85;;
68214;SDS011;55036;52.138;5.236;2023-03-20T12:51:58;27.02;;;16.17;;
68214;SDS011;55036;52.138;5.236;2023-03-20T12:59:55;24.10;;;15.43;;
68214;SDS011;55036;52.138;5.236;2023-03-20T13:02:47;25.02;;;16.08;;
68214;SDS011;55036;52.138;5.236;2023-03-20T13:08:06;21.02;;;14.52;;
68214;SDS011;55036;52.138;5.236;2023-03-20T13:11:04;23.15;;;12.75;;
68214;SDS011;55036;52.138;5.236;2023-03-20T13:13:47;24.50;;;13.93;;
68214;SDS011;55036;52.138;5.236;2023-03-20T13:22:07;27.73;;;13.93;;
68214;SDS011;55036;52.138;5.236;2023-03-20T13:24:54;26.55;;;13.88;;
68214;SDS011;55036;52.138;5.236;2023-03-20T13:27:52;30.52;;;14.18;;
68214;SDS011;55036;52.138;5.236;2023-03-20T13:30:42;30.63;;;14.68;;
68214;SDS011;55036;52.138;5.236;2023-03-20T13:39:14;24.17;;;13.80;;
68214;SDS011;55036;52.138;5.236;2023-03-20T13:41:43;20.77;;;13.67;;
68214;SDS011;55036;52.138;5.236;2023-03-20T13:44:13;30.90;;;14.35;;
68214;SDS011;55036;52.138;5.236;2023-03-20T13:46:45;27.98;;;14.05;;
68214;SDS011;55036;52.138;5.236;2023-03-20T13:49:32;27.65;;;13.48;;
68214;SDS011;55036;52.138;5.236;2023-03-20T14:05:20;24.30;;;12.80;;
68214;SDS011;55036;52.138;5.236;2023-03-20T14:07:49;25.40;;;14.05;;
68214;SDS011;55036;52.138;5.236;2023-03-20T14:15:26;17.63;;;12.68;;
68214;SDS011;55036;52.138;5.236;2023-03-20T14:17:57;18.33;;;11.80;;
68214;SDS011;55036;52.138;5.236;2023-03-20T14:22:57;20.92;;;12.27;;
68214;SDS011;55036;52.138;5.236;2023-03-20T14:25:24;14.27;;;11.18;;
68214;SDS011;55036;52.138;5.236;2023-03-20T14:28:08;19.65;;;11.85;;
68214;SDS011;55036;52.138;5.236;2023-03-20T14:30:50;16.08;;;11.40;;
68214;SDS011;55036;52.138;5.236;2023-03-20T14:33:52;19.98;;;12.93;;
68214;SDS011;55036;52.138;5.236;2023-03-20T14:45:19;18.75;;;11.45;;
68214;SDS011;55036;52.138;5.236;2023-03-20T14:48:04;21.70;;;11.20;;
68214;SDS011;55036;52.138;5.236;2023-03-20T14:51:01;17.73;;;11.23;;
68214;SDS011;55036;52.138;5.236;2023-03-20T14:53:54;16.15;;;11.07;;
68214;SDS011;55036;52.138;5.236;2023-03-20T14:56:44;18.65;;;11.55;;
68214;SDS011;55036;52.138;5.236;2023-03-20T14:59:11;17.13;;;11.52;;
68214;SDS011;55036;52.138;5.236;2023-03-20T15:07:27;16.90;;;10.20;;
68214;SDS011;55036;52.138;5.236;2023-03-20T15:09:57;21.75;;;11.35;;
68214;SDS011;55036;52.138;5.236;2023-03-20T15:14:57;15.38;;;11.15;;
68214;SDS011;55036;52.138;5.236;2023-03-20T15:17:33;17.27;;;11.73;;
68214;SDS011;55036;52.138;5.236;2023-03-20T15:20:16;17.42;;;11.20;;
68214;SDS011;55036;52.138;5.236;2023-03-20T15:22:54;18.15;;;11.63;;
68214;SDS011;55036;52.138;5.236;2023-03-20T15:25:27;21.45;;;14.10;;
68214;SDS011;55036;52.138;5.236;2023-03-20T15:27:56;19.73;;;12.73;;
68214;SDS011;55036;52.138;5.236;2023-03-20T15:30:23;19.48;;;11.43;;
68214;SDS011;55036;52.138;5.236;2023-03-20T15:32:52;16.10;;;11.52;;
68214;SDS011;55036;52.138;5.236;2023-03-20T15:35:20;17.50;;;12.25;;
68214;SDS011;55036;52.138;5.236;2023-03-20T15:37:49;15.68;;;11.40;;
68214;SDS011;55036;52.138;5.236;2023-03-20T15:40:22;21.02;;;11.75;;
68214;SDS011;55036;52.138;5.236;2023-03-20T15:42:56;17.08;;;12.15;;
68214;SDS011;55036;52.138;5.236;2023-03-20T15:45:33;18.90;;;12.63;;
68214;SDS011;55036;52.138;5.236;2023-03-20T15:48:04;20.02;;;12.88;;
68214;SDS011;55036;52.138;5.236;2023-03-20T15:50:36;22.73;;;13.82;;
68214;SDS011;55036;52.138;5.236;2023-03-20T15:53:07;21.95;;;14.10;;
68214;SDS011;55036;52.138;5.236;2023-03-20T15:55:46;22.23;;;13.93;;
68214;SDS011;55036;52.138;5.236;2023-03-20T15:58:17;20.38;;;13.73;;
68214;SDS011;55036;52.138;5.236;2023-03-20T16:00:47;21.85;;;15.55;;
68214;SDS011;55036;52.138;5.236;2023-03-20T16:03:18;30.23;;;14.55;;
68214;SDS011;55036;52.138;5.236;2023-03-20T16:05:47;21.60;;;14.60;;
68214;SDS011;55036;52.138;5.236;2023-03-20T16:11:59;22.58;;;14.90;;
68214;SDS011;55036;52.138;5.236;2023-03-20T16:14:01;28.92;;;15.05;;
68214;SDS011;55036;52.138;5.236;2023-03-20T16:16:28;26.42;;;15.98;;
68214;SDS011;55036;52.138;5.236;2023-03-20T16:19:03;22.20;;;15.00;;
68214;SDS011;55036;52.138;5.236;2023-03-20T16:21:32;33.75;;;17.67;;
68214;SDS011;55036;52.138;5.236;2023-03-20T16:24:04;30.43;;;17.07;;
68214;SDS011;55036;52.138;5.236;2023-03-20T16:26:35;25.98;;;16.50;;
68214;SDS011;55036;52.138;5.236;2023-03-20T16:29:05;24.15;;;15.45;;
68214;SDS011;55036;52.138;5.236;2023-03-20T16:31:33;24.30;;;15.43;;
68214;SDS011;55036;52.138;5.236;2023-03-20T16:34:05;25.48;;;13.98;;
68214;SDS011;55036;52.138;5.236;2023-03-20T16:36:35;25.48;;;16.35;;
68214;SDS011;55036;52.138;5.236;2023-03-20T16:41:43;27.83;;;16.75;;
68214;SDS011;55036;52.138;5.236;2023-03-20T16:51:57;30.77;;;17.70;;
68214;SDS011;55036;52.138;5.236;2023-03-20T16:54:32;32.92;;;17.05;;
68214;SDS011;55036;52.138;5.236;2023-03-20T16:57:01;28.38;;;16.92;;
68214;SDS011;55036;52.138;5.236;2023-03-20T16:59:29;26.08;;;16.73;;
68214;SDS011;55036;52.138;5.236;2023-03-20T17:01:58;27.88;;;15.85;;
68214;SDS011;55036;52.138;5.236;2023-03-20T17:04:27;30.13;;;16.30;;
68214;SDS011;55036;52.138;5.236;2023-03-20T17:07:01;24.95;;;16.42;;
68214;SDS011;55036;52.138;5.236;2023-03-20T17:09:32;29.10;;;18.88;;
68214;SDS011;55036;52.138;5.236;2023-03-20T17:12:13;30.83;;;18.95;;
68214;SDS011;55036;52.138;5.236;2023-03-20T17:14:42;28.10;;;16.35;;
68214;SDS011;55036;52.138;5.236;2023-03-20T17:17:14;29.50;;;17.83;;
68214;SDS011;55036;52.138;5.236;2023-03-20T17:19:44;33.35;;;18.52;;
68214;SDS011;55036;52.138;5.236;2023-03-20T17:22:13;28.70;;;18.17;;
68214;SDS011;55036;52.138;5.236;2023-03-20T17:24:42;27.25;;;15.75;;
68214;SDS011;55036;52.138;5.236;2023-03-20T17:27:09;26.15;;;16.08;;
68214;SDS011;55036;52.138;5.236;2023-03-20T17:29:37;28.77;;;18.48;;
68214;SDS011;55036;52.138;5.236;2023-03-20T17:32:12;30.55;;;16.75;;
68214;SDS011;55036;52.138;5.236;2023-03-20T17:34:40;34.03;;;21.15;;
68214;SDS011;55036;52.138;5.236;2023-03-20T17:37:10;30.10;;;16.23;;
68214;SDS011;55036;52.138;5.236;2023-03-20T17:39:39;35.57;;;16.60;;
68214;SDS011;55036;52.138;5.236;2023-03-20T17:42:18;26.65;;;16.20;;
68214;SDS011;55036;52.138;5.236;2023-03-20T17:44:47;37.72;;;16.85;;
68214;SDS011;55036;52.138;5.236;2023-03-20T17:47:18;24.50;;;16.20;;